createdAt,value
2023-03-11T00:01:41.467Z,21.77
2023-03-11T00:04:13.476Z,24.30
2023-03-11T00:10:01.049Z,25.65
2023-03-11T00:12:33.562Z,24.80
2023-03-11T00:15:09.441Z,25.88
2023-03-11T00:17:42.208Z,24.38
2023-03-11T00:20:21.686Z,23.02
2023-03-11T00:22:54.466Z,26.13
2023-03-11T00:25:29.109Z,25.17
2023-03-11T00:28:02.204Z,25.35
2023-03-11T00:30:53.577Z,24.17
2023-03-11T00:33:26.834Z,22.35
2023-03-11T00:35:59.194Z,24.90
2023-03-11T00:38:31.543Z,21.83
2023-03-11T00:41:10.821Z,23.35
2023-03-11T00:43:42.769Z,23.92
2023-03-11T00:46:16.671Z,23.10
2023-03-11T00:48:49.317Z,24.90
2023-03-11T00:51:25.678Z,24.08
2023-03-11T00:53:57.278Z,22.65
2023-03-11T00:56:28.611Z,24.88
2023-03-11T00:59:00.357Z,28.60
2023-03-11T01:01:34.277Z,26.83
2023-03-11T01:04:05.758Z,28.05
2023-03-11T01:06:45.169Z,27.45
2023-03-11T01:09:17.438Z,28.85
2023-03-11T01:11:49.136Z,29.92
2023-03-11T01:14:21.003Z,29.92
2023-03-11T01:16:55.567Z,31.08
2023-03-11T01:19:27.253Z,29.45
2023-03-11T01:21:59.044Z,33.92
2023-03-11T01:24:30.583Z,32.42
2023-03-11T01:27:01.810Z,29.77
2023-03-11T01:29:33.478Z,30.38
2023-03-11T01:32:08.916Z,28.33
2023-03-11T01:34:40.459Z,28.38
2023-03-11T01:37:11.801Z,28.60
2023-03-11T01:39:43.663Z,25.08
2023-03-11T01:42:14.957Z,25.52
2023-03-11T01:47:50.121Z,19.77
2023-03-11T01:50:22.142Z,20.33
2023-03-11T01:52:53.580Z,22.00
2023-03-11T01:55:26.618Z,17.33
2023-03-11T01:57:58.719Z,14.82
2023-03-11T02:00:30.802Z,11.95
2023-03-11T02:03:10.404Z,11.52
2023-03-11T02:05:43.906Z,10.82
2023-03-11T02:08:17.814Z,9.10
2023-03-11T02:10:53.249Z,9.18
2023-03-11T02:13:24.710Z,8.43
2023-03-11T02:15:56.590Z,7.30
2023-03-11T02:18:32.131Z,6.18
2023-03-11T02:21:14.614Z,6.28
2023-03-11T02:23:55.613Z,6.18
2023-03-11T02:26:34.338Z,5.45
2023-03-11T02:29:15.359Z,4.75
2023-03-11T02:31:48.744Z,5.80
2023-03-11T02:34:29.237Z,5.53
2023-03-11T02:37:02.853Z,6.20
2023-03-11T02:39:36.115Z,5.63
2023-03-11T02:42:14.084Z,6.05
2023-03-11T02:44:54.598Z,4.97
2023-03-11T02:47:27.392Z,5.55
2023-03-11T02:50:00.213Z,5.97
2023-03-11T02:52:35.238Z,6.20
2023-03-11T02:55:07.361Z,6.75
2023-03-11T02:57:39.830Z,5.88
2023-03-11T03:00:18.562Z,6.07
2023-03-11T03:02:52.466Z,7.15
2023-03-11T03:05:25.747Z,7.65
2023-03-11T03:07:57.995Z,7.30
2023-03-11T03:10:31.006Z,7.60
2023-03-11T03:13:02.838Z,7.35
2023-03-11T03:15:36.813Z,8.60
2023-03-11T03:18:08.526Z,8.57
2023-03-11T03:20:40.054Z,9.48
2023-03-11T03:23:11.575Z,9.32
2023-03-11T03:25:47.205Z,9.27
2023-03-11T03:28:18.770Z,9.60
2023-03-11T03:30:53.022Z,8.75
2023-03-11T03:33:25.080Z,8.98
2023-03-11T03:35:56.138Z,9.57
2023-03-11T03:38:28.345Z,10.45
2023-03-11T03:41:00.182Z,8.63
2023-03-11T03:43:31.412Z,10.55
2023-03-11T03:46:08.438Z,9.45
2023-03-11T03:48:39.962Z,9.80
2023-03-11T03:51:14.124Z,10.18
2023-03-11T03:53:46.815Z,10.60
2023-03-11T03:56:20.155Z,9.73
2023-03-11T03:58:54.169Z,11.07
2023-03-11T04:01:30.804Z,9.73
2023-03-11T04:04:02.620Z,10.18
2023-03-11T04:06:33.889Z,10.05
2023-03-11T04:09:05.288Z,9.95
2023-03-11T04:11:36.514Z,10.10
2023-03-11T04:14:09.233Z,10.68
2023-03-11T04:16:44.005Z,10.90
2023-03-11T04:19:15.575Z,10.10
2023-03-11T04:21:46.921Z,11.07
2023-03-11T04:24:18.699Z,10.40
2023-03-11T04:26:49.991Z,11.30
2023-03-11T04:29:21.655Z,10.02
2023-03-11T04:31:55.689Z,10.73
2023-03-11T04:34:27.315Z,10.05
2023-03-11T04:36:58.835Z,8.85
2023-03-11T04:39:30.200Z,9.50
2023-03-11T04:42:03.879Z,10.45
2023-03-11T04:44:38.981Z,9.73
2023-03-11T04:47:17.443Z,10.10
2023-03-11T04:49:49.301Z,9.63
2023-03-11T04:52:20.575Z,9.57
2023-03-11T04:54:53.555Z,9.50
2023-03-11T04:57:25.089Z,7.47
2023-03-11T04:59:57.901Z,7.70
2023-03-11T05:02:32.402Z,7.60
2023-03-11T05:05:05.157Z,6.82
2023-03-11T05:07:36.895Z,6.90
2023-03-11T05:10:09.949Z,8.20
2023-03-11T05:12:41.914Z,6.72
2023-03-11T05:15:14.691Z,7.00
2023-03-11T05:17:49.915Z,6.18
2023-03-11T05:20:22.201Z,6.60
2023-03-11T05:22:54.246Z,7.28
2023-03-11T05:25:26.876Z,6.57
2023-03-11T05:27:59.221Z,6.65
2023-03-11T05:30:31.655Z,7.13
2023-03-11T05:33:06.662Z,6.82
2023-03-11T05:35:39.666Z,7.00
2023-03-11T05:38:11.948Z,7.43
2023-03-11T05:40:44.825Z,7.68
2023-03-11T05:43:16.837Z,8.23
2023-03-11T05:45:49.364Z,7.38
2023-03-11T05:48:26.821Z,7.22
2023-03-11T05:50:59.958Z,7.95
2023-03-11T05:53:31.698Z,7.78
2023-03-11T05:56:04.426Z,7.40
2023-03-11T05:58:36.539Z,8.07
2023-03-11T06:01:12.268Z,8.70
2023-03-11T06:03:46.826Z,7.63
2023-03-11T06:06:19.476Z,8.27
2023-03-11T06:08:50.648Z,8.23
2023-03-11T06:11:24.284Z,8.45
2023-03-11T06:13:56.738Z,9.23
2023-03-11T06:16:30.524Z,8.30
2023-03-11T06:19:04.593Z,9.43
2023-03-11T06:21:36.915Z,9.82
2023-03-11T06:24:09.841Z,9.57
2023-03-11T06:26:41.445Z,10.48
2023-03-11T06:29:17.358Z,10.35
2023-03-11T06:31:49.348Z,10.77
2023-03-11T06:34:23.910Z,10.27
2023-03-11T06:36:55.478Z,9.20
2023-03-11T06:39:27.007Z,10.77
2023-03-11T06:41:58.322Z,11.10
2023-03-11T06:44:29.457Z,10.70
2023-03-11T06:47:01.300Z,10.18
2023-03-11T06:49:34.948Z,10.98
2023-03-11T06:52:06.751Z,9.85
2023-03-11T06:54:38.974Z,10.85
2023-03-11T06:57:11.393Z,10.25
2023-03-11T06:59:43.385Z,10.43
2023-03-11T07:02:17.384Z,9.93
2023-03-11T07:04:52.487Z,8.68
2023-03-11T07:07:24.409Z,9.10
2023-03-11T07:09:58.448Z,8.15
2023-03-11T07:12:29.987Z,8.13
2023-03-11T07:15:02.339Z,8.70
2023-03-11T07:17:34.158Z,8.18
2023-03-11T07:20:09.638Z,8.40
2023-03-11T07:22:41.095Z,8.65
2023-03-11T07:25:12.811Z,8.50
2023-03-11T07:27:44.594Z,8.43
2023-03-11T07:30:18.199Z,8.93
2023-03-11T07:32:50.666Z,9.13
2023-03-11T07:35:24.897Z,8.93
2023-03-11T07:37:56.784Z,9.43
2023-03-11T07:40:27.863Z,9.05
2023-03-11T07:42:59.487Z,10.43
2023-03-11T07:45:32.031Z,7.80
2023-03-11T07:48:03.708Z,9.50
2023-03-11T07:50:37.668Z,9.05
2023-03-11T07:53:09.823Z,9.38
2023-03-11T07:55:41.270Z,9.40
2023-03-11T07:58:13.047Z,9.02
2023-03-11T08:00:47.812Z,8.40
2023-03-11T08:03:20.416Z,8.95
2023-03-11T08:05:54.850Z,8.98
2023-03-11T08:08:27.094Z,9.20
2023-03-11T08:11:07.401Z,8.30
2023-03-11T08:13:39.448Z,9.02
2023-03-11T08:16:14.073Z,8.55
2023-03-11T08:18:46.941Z,9.10
2023-03-11T08:21:24.767Z,9.07
2023-03-11T08:24:02.095Z,9.15
2023-03-11T08:26:34.607Z,8.93
2023-03-11T08:29:08.114Z,8.02
2023-03-11T08:31:40.741Z,7.72
2023-03-11T08:34:14.748Z,7.93
2023-03-11T08:36:49.571Z,7.43
2023-03-11T08:39:20.994Z,8.75
2023-03-11T08:41:52.597Z,8.07
2023-03-11T08:44:24.149Z,8.23
2023-03-11T08:46:55.804Z,9.13
2023-03-11T08:49:27.140Z,8.27
2023-03-11T08:52:01.967Z,8.52
2023-03-11T08:54:34.293Z,8.38
2023-03-11T08:57:06.351Z,7.75
2023-03-11T08:59:37.982Z,8.50
2023-03-11T09:02:09.725Z,8.23
2023-03-11T09:04:40.993Z,8.38
2023-03-11T09:07:15.517Z,7.97
2023-03-11T09:09:47.672Z,8.40
2023-03-11T09:12:19.075Z,7.78
2023-03-11T09:14:51.018Z,7.57
2023-03-11T09:17:22.462Z,8.10
2023-03-11T09:19:54.232Z,8.07
2023-03-11T09:22:28.330Z,8.65
2023-03-11T09:25:00.876Z,7.82
2023-03-11T09:27:32.655Z,8.77
2023-03-11T09:30:04.445Z,8.52
2023-03-11T09:32:39.329Z,7.40
2023-03-11T09:35:11.378Z,7.70
2023-03-11T09:37:45.616Z,7.78
2023-03-11T09:40:20.667Z,7.38
2023-03-11T09:43:05.063Z,7.22
2023-03-11T09:45:40.457Z,7.75
2023-03-11T09:48:23.513Z,8.18
2023-03-11T09:51:02.203Z,8.52
2023-03-11T09:53:43.827Z,8.75
2023-03-11T09:56:22.531Z,9.13
2023-03-11T09:58:57.886Z,9.45
2023-03-11T10:01:33.680Z,8.93
2023-03-11T10:04:12.276Z,9.35
2023-03-11T10:06:48.476Z,9.95
2023-03-11T10:09:37.045Z,9.50
2023-03-11T10:12:23.530Z,9.38
2023-03-11T10:15:09.701Z,9.25
2023-03-11T10:18:07.563Z,9.48
2023-03-11T10:20:49.741Z,9.75
2023-03-11T10:23:29.309Z,9.27
2023-03-11T10:26:14.997Z,9.02
2023-03-11T10:28:55.071Z,9.57
2023-03-11T10:31:30.392Z,9.32
2023-03-11T10:34:07.725Z,9.43
2023-03-11T10:36:46.506Z,10.50
2023-03-11T10:39:19.007Z,11.88
2023-03-11T10:41:57.327Z,11.32
2023-03-11T10:44:37.224Z,11.15
2023-03-11T10:47:10.026Z,9.73
2023-03-11T10:49:41.653Z,9.00
2023-03-11T10:52:13.479Z,9.60
2023-03-11T10:54:48.381Z,9.80
2023-03-11T10:57:28.570Z,9.82
2023-03-11T11:00:02.017Z,10.95
2023-03-11T11:02:35.716Z,10.80
2023-03-11T11:05:25.035Z,10.82
2023-03-11T11:08:07.338Z,12.07
2023-03-11T11:10:40.902Z,11.10
2023-03-11T11:13:26.705Z,11.27
2023-03-11T11:16:03.915Z,12.27
2023-03-11T11:18:38.746Z,11.23
2023-03-11T11:21:12.841Z,12.00
2023-03-11T11:23:46.353Z,11.68
2023-03-11T11:26:21.669Z,12.18
2023-03-11T11:29:10.590Z,11.45
2023-03-11T11:31:45.139Z,12.38
2023-03-11T11:34:41.458Z,12.07
2023-03-11T11:37:16.795Z,11.68
2023-03-11T11:39:52.585Z,12.00
2023-03-11T11:42:27.667Z,12.68
2023-03-11T11:45:07.528Z,12.35
2023-03-11T11:47:45.681Z,12.25
2023-03-11T11:50:32.321Z,12.32
2023-03-11T11:53:14.660Z,13.15
2023-03-11T11:55:52.822Z,12.45
2023-03-11T11:58:25.249Z,12.38
2023-03-11T12:01:10.663Z,11.65
2023-03-11T12:04:22.479Z,12.57
2023-03-11T12:07:04.163Z,11.60
2023-03-11T12:09:44.061Z,10.48
2023-03-11T12:12:28.536Z,10.65
2023-03-11T12:15:10.417Z,10.23
2023-03-11T12:17:48.079Z,11.50
2023-03-11T12:20:28.338Z,11.93
2023-03-11T12:23:20.489Z,11.57
2023-03-11T12:26:06.379Z,11.65
2023-03-11T12:28:44.219Z,12.88
2023-03-11T12:31:17.132Z,12.25
2023-03-11T12:33:54.205Z,12.18
2023-03-11T12:36:48.850Z,9.63
2023-03-11T12:39:32.839Z,10.00
2023-03-11T12:42:43.252Z,9.80
2023-03-11T12:45:50.725Z,9.45
2023-03-11T12:48:46.177Z,9.73
2023-03-11T12:51:44.550Z,10.02
2023-03-11T12:54:33.113Z,9.98
2023-03-11T12:57:34.361Z,9.55
2023-03-11T13:00:45.717Z,10.43
2023-03-11T13:03:51.167Z,11.80
2023-03-11T13:06:40.293Z,10.82
2023-03-11T13:09:20.268Z,9.18
2023-03-11T13:12:05.028Z,9.38
2023-03-11T13:14:51.566Z,9.70
2023-03-11T13:17:31.265Z,10.02
2023-03-11T13:20:08.046Z,10.10
2023-03-11T13:23:03.870Z,9.52
2023-03-11T13:25:51.247Z,9.98
2023-03-11T13:28:51.387Z,10.15
2023-03-11T13:31:56.377Z,9.00
2023-03-11T13:34:38.407Z,9.30
2023-03-11T13:37:25.568Z,7.68
2023-03-11T13:40:16.175Z,9.18
2023-03-11T13:42:56.928Z,8.05
2023-03-11T13:45:50.662Z,7.32
2023-03-11T13:48:32.457Z,7.43
2023-03-11T13:51:20.055Z,6.82
2023-03-11T13:54:24.482Z,6.70
2023-03-11T13:57:11.970Z,6.80
2023-03-11T13:59:46.331Z,6.10
2023-03-11T14:02:21.640Z,5.88
2023-03-11T14:04:56.427Z,6.05
2023-03-11T14:07:32.005Z,6.22
2023-03-11T14:10:55.860Z,5.93
2023-03-11T14:13:29.491Z,5.75
2023-03-11T14:16:11.234Z,6.35
2023-03-11T14:18:48.712Z,6.15
2023-03-11T14:21:23.578Z,5.85
2023-03-11T14:23:58.047Z,6.57
2023-03-11T14:26:34.423Z,6.18
2023-03-11T14:29:34.545Z,5.68
2023-03-11T14:32:28.302Z,6.35
2023-03-11T14:35:00.783Z,6.05
2023-03-11T14:37:36.337Z,5.63
2023-03-11T14:40:26.524Z,5.63
2023-03-11T14:43:02.028Z,4.95
2023-03-11T14:45:37.624Z,5.15
2023-03-11T14:48:18.424Z,5.50
2023-03-11T14:50:52.756Z,5.30
2023-03-11T14:53:28.529Z,5.32
2023-03-11T14:56:02.517Z,5.68
2023-03-11T14:58:37.387Z,5.22
2023-03-11T15:01:17.725Z,5.65
2023-03-11T15:03:54.910Z,5.20
2023-03-11T15:06:29.590Z,4.60
2023-03-11T15:09:05.067Z,5.28
2023-03-11T15:11:49.060Z,5.30
2023-03-11T15:14:33.417Z,4.78
2023-03-11T15:17:33.644Z,5.53
2023-03-11T15:20:25.880Z,5.28
2023-03-11T15:23:01.585Z,5.13
2023-03-11T15:25:36.913Z,4.60
2023-03-11T15:28:28.476Z,5.07
2023-03-11T15:31:19.618Z,3.95
2023-03-11T15:33:52.920Z,4.25
2023-03-11T15:36:39.956Z,3.83
2023-03-11T15:39:21.593Z,3.95
2023-03-11T15:42:03.793Z,3.67
2023-03-11T15:44:41.073Z,4.00
2023-03-11T15:47:18.341Z,4.20
2023-03-11T15:49:51.713Z,4.00
2023-03-11T15:52:26.555Z,3.90
2023-03-11T15:54:59.198Z,4.28
2023-03-11T15:57:33.057Z,4.13
2023-03-11T16:00:06.139Z,4.20
2023-03-11T16:02:38.718Z,3.90
2023-03-11T16:05:17.341Z,3.92
2023-03-11T16:07:53.180Z,3.42
2023-03-11T16:10:28.987Z,3.47
2023-03-11T16:13:01.285Z,4.05
2023-03-11T16:15:35.547Z,3.25
2023-03-11T16:18:09.910Z,3.45
2023-03-11T16:20:45.103Z,3.65
2023-03-11T16:23:23.759Z,3.97
2023-03-11T16:25:59.663Z,3.40
2023-03-11T16:28:32.213Z,3.65
2023-03-11T16:31:05.130Z,3.88
2023-03-11T16:33:39.166Z,4.13
2023-03-11T16:36:16.659Z,3.88
2023-03-11T16:38:54.151Z,3.80
2023-03-11T16:41:27.324Z,3.63
2023-03-11T16:44:00.896Z,4.00
2023-03-11T16:46:33.531Z,3.90
2023-03-11T16:49:05.694Z,3.40
2023-03-11T16:51:38.486Z,3.78
2023-03-11T16:54:13.556Z,4.07
2023-03-11T16:56:46.398Z,3.85
2023-03-11T16:59:18.686Z,3.78
2023-03-11T17:01:51.116Z,4.40
2023-03-11T17:04:23.527Z,3.92
2023-03-11T17:06:56.430Z,4.10
2023-03-11T17:09:31.345Z,4.18
2023-03-11T17:12:04.228Z,4.10
2023-03-11T17:14:36.911Z,3.97
2023-03-11T17:17:09.271Z,4.20
2023-03-11T17:19:41.236Z,4.07
2023-03-11T17:22:13.611Z,4.15
2023-03-11T17:24:48.313Z,4.30
2023-03-11T17:27:20.768Z,3.50
2023-03-11T17:29:53.476Z,4.20
2023-03-11T17:32:26.156Z,4.18
2023-03-11T17:34:58.288Z,4.85
2023-03-11T17:37:30.609Z,4.78
2023-03-11T17:40:05.748Z,4.72
2023-03-11T17:42:39.575Z,4.10
2023-03-11T17:45:13.277Z,4.18
2023-03-11T17:47:45.788Z,5.00
2023-03-11T17:50:18.536Z,4.97
2023-03-11T17:52:51.029Z,5.22
2023-03-11T17:55:26.595Z,5.15
2023-03-11T17:57:59.286Z,4.97
2023-03-11T18:00:31.511Z,4.82
2023-03-11T18:03:04.450Z,4.47
2023-03-11T18:05:38.484Z,5.10
2023-03-11T18:08:11.442Z,4.65
2023-03-11T18:10:53.061Z,5.25
2023-03-11T18:13:26.464Z,5.15
2023-03-11T18:16:02.289Z,4.47
2023-03-11T18:18:45.765Z,4.72
2023-03-11T18:21:20.262Z,4.57
2023-03-11T18:23:53.107Z,4.20
2023-03-11T18:26:29.442Z,4.97
2023-03-11T18:29:03.124Z,4.63
2023-03-11T18:31:35.486Z,4.57
2023-03-11T18:34:13.959Z,4.38
2023-03-11T18:36:45.901Z,3.97
2023-03-11T18:39:18.462Z,4.40
2023-03-11T18:41:53.045Z,4.43
2023-03-11T18:44:25.349Z,5.70
2023-03-11T18:46:59.220Z,4.25
2023-03-11T18:49:31.722Z,3.83
2023-03-11T18:52:03.560Z,4.32
2023-03-11T18:54:35.930Z,3.80
2023-03-11T18:57:10.591Z,3.80
2023-03-11T18:59:42.646Z,4.20
2023-03-11T19:02:15.121Z,3.92
2023-03-11T19:04:48.860Z,3.75
2023-03-11T19:07:20.703Z,3.70
2023-03-11T19:09:53.090Z,3.38
2023-03-11T19:12:29.905Z,3.83
2023-03-11T19:15:02.229Z,3.33
2023-03-11T19:17:34.290Z,3.63
2023-03-11T19:20:08.591Z,3.65
2023-03-11T19:22:40.914Z,3.85
2023-03-11T19:25:13.699Z,3.75
2023-03-11T19:27:48.261Z,3.60
2023-03-11T19:30:21.591Z,3.90
2023-03-11T19:32:53.646Z,4.25
2023-03-11T19:35:27.147Z,3.60
2023-03-11T19:37:59.549Z,3.75
2023-03-11T19:40:33.904Z,3.20
2023-03-11T19:43:08.658Z,3.67
2023-03-11T19:45:40.886Z,3.42
2023-03-11T19:48:13.330Z,2.97
2023-03-11T19:50:45.725Z,2.72
2023-03-11T19:53:18.319Z,4.13
2023-03-11T19:55:53.057Z,3.90
2023-03-11T19:58:30.808Z,3.88
2023-03-11T20:01:04.063Z,3.78
2023-03-11T20:03:35.877Z,3.40
2023-03-11T20:06:10.285Z,3.70
2023-03-11T20:08:42.359Z,3.67
2023-03-11T20:11:15.040Z,3.50
2023-03-11T20:13:50.521Z,3.85
2023-03-11T20:16:23.384Z,3.42
2023-03-11T20:18:55.555Z,3.70
2023-03-11T20:21:27.926Z,3.85
2023-03-11T20:24:00.237Z,3.53
2023-03-11T20:26:32.662Z,3.28
2023-03-11T20:29:08.178Z,4.00
2023-03-11T20:31:40.809Z,3.35
2023-03-11T20:34:13.570Z,3.90
2023-03-11T20:36:46.932Z,3.45
2023-03-11T20:39:19.112Z,3.45
2023-03-11T20:41:52.621Z,3.33
2023-03-11T20:44:27.837Z,3.72
2023-03-11T20:47:00.309Z,3.40
2023-03-11T20:49:32.783Z,3.33
2023-03-11T20:52:05.422Z,3.40
2023-03-11T20:54:37.634Z,2.55
2023-03-11T20:57:10.188Z,2.90
2023-03-11T20:59:44.913Z,3.47
2023-03-11T21:02:17.259Z,3.00
2023-03-11T21:04:49.747Z,3.15
2023-03-11T21:07:21.886Z,3.10
2023-03-11T21:09:55.172Z,3.25
2023-03-11T21:12:30.633Z,3.50
2023-03-11T21:15:05.676Z,2.83
2023-03-11T21:17:38.654Z,3.60
2023-03-11T21:20:11.546Z,3.08
2023-03-11T21:22:46.891Z,3.03
2023-03-11T21:25:19.376Z,2.90
2023-03-11T21:27:51.489Z,2.97
2023-03-11T21:30:26.100Z,3.55
2023-03-11T21:32:58.530Z,2.90
2023-03-11T21:35:32.058Z,2.97
2023-03-11T21:38:04.507Z,2.50
2023-03-11T21:40:36.444Z,2.75
2023-03-11T21:43:08.635Z,2.70
2023-03-11T21:45:43.366Z,2.83
2023-03-11T21:48:16.211Z,2.92
2023-03-11T21:50:49.022Z,3.33
2023-03-11T21:53:29.510Z,2.60
2023-03-11T21:56:04.335Z,2.53
2023-03-11T21:58:36.842Z,2.80
2023-03-11T22:01:12.293Z,2.78
2023-03-11T22:03:44.371Z,3.03
2023-03-11T22:06:16.438Z,2.65
2023-03-11T22:08:49.362Z,2.67
2023-03-11T22:11:21.359Z,2.60
2023-03-11T22:14:00.789Z,2.45
2023-03-11T22:16:42.888Z,2.60
2023-03-11T22:19:33.486Z,2.53
2023-03-11T22:22:05.390Z,2.53
2023-03-11T22:24:40.430Z,2.40
2023-03-11T22:27:14.620Z,2.40
2023-03-11T22:29:46.997Z,2.65
2023-03-11T22:32:45.120Z,2.58
2023-03-11T22:35:20.097Z,2.58
2023-03-11T22:37:52.096Z,2.28
2023-03-11T22:40:26.523Z,2.60
2023-03-11T22:42:58.515Z,2.45
2023-03-11T22:45:30.998Z,2.75
2023-03-11T22:48:05.906Z,3.25
2023-03-11T22:53:50.567Z,2.42
2023-03-11T22:56:23.182Z,2.10
2023-03-11T22:58:55.156Z,2.40
2023-03-11T23:01:27.508Z,2.22
2023-03-11T23:04:02.781Z,2.60
2023-03-11T23:06:35.158Z,2.50
2023-03-11T23:09:07.717Z,2.58
2023-03-11T23:11:40.483Z,2.80
2023-03-11T23:14:12.336Z,2.10
2023-03-11T23:16:44.415Z,2.30
2023-03-11T23:19:18.764Z,2.45
2023-03-11T23:21:50.636Z,2.58
2023-03-11T23:24:22.235Z,2.63
2023-03-11T23:26:54.196Z,2.40
2023-03-11T23:29:25.837Z,2.47
2023-03-11T23:31:57.882Z,2.70
2023-03-11T23:34:32.123Z,2.45
2023-03-11T23:37:05.497Z,2.58
2023-03-11T23:39:37.395Z,2.65
2023-03-11T23:42:24.444Z,2.75
2023-03-11T23:44:57.746Z,2.50
2023-03-11T23:47:29.722Z,2.45
2023-03-11T23:50:04.413Z,2.55
2023-03-11T23:52:36.774Z,2.22
2023-03-11T23:55:21.816Z,2.60
2023-03-11T23:57:54.233Z,2.30
